sensor_id;sensor_type;location;lat;lon;timestamp;P1;durP1;ratioP1;P2;durP2;ratioP2
16039;SDS011;8124;48.634;8.120;2024-02-28T00:02:25;56.97;;;45.33;;
16039;SDS011;8124;48.634;8.120;2024-02-28T00:07:29;54.53;;;43.28;;
16039;SDS011;8124;48.634;8.120;2024-02-28T00:12:33;56.38;;;43.70;;
16039;SDS011;8124;48.634;8.120;2024-02-28T00:17:38;55.63;;;43.53;;
16039;SDS011;8124;48.634;8.120;2024-02-28T00:22:41;54.90;;;44.28;;
16039;SDS011;8124;48.634;8.120;2024-02-28T00:27:46;54.88;;;43.90;;
16039;SDS011;8124;48.634;8.120;2024-02-28T00:32:50;54.03;;;43.47;;
16039;SDS011;8124;48.634;8.120;2024-02-28T00:37:53;52.30;;;42.97;;
16039;SDS011;8124;48.634;8.120;2024-02-28T00:42:57;54.65;;;43.63;;
16039;SDS011;8124;48.634;8.120;2024-02-28T00:48:00;57.22;;;44.80;;
16039;SDS011;8124;48.634;8.120;2024-02-28T00:53:03;56.58;;;44.25;;
16039;SDS011;8124;48.634;8.120;2024-02-28T00:58:08;54.17;;;43.83;;
16039;SDS011;8124;48.634;8.120;2024-02-28T01:03:11;53.45;;;43.70;;
16039;SDS011;8124;48.634;8.120;2024-02-28T01:08:16;56.22;;;43.75;;
16039;SDS011;8124;48.634;8.120;2024-02-28T01:13:20;53.80;;;43.38;;
16039;SDS011;8124;48.634;8.120;2024-02-28T01:18:24;58.85;;;44.75;;
16039;SDS011;8124;48.634;8.120;2024-02-28T01:23:27;59.22;;;44.90;;
16039;SDS011;8124;48.634;8.120;2024-02-28T01:28:31;58.70;;;44.90;;
16039;SDS011;8124;48.634;8.120;2024-02-28T01:33:34;54.88;;;43.88;;
16039;SDS011;8124;48.634;8.120;2024-02-28T01:38:37;53.63;;;43.55;;
16039;SDS011;8124;48.634;8.120;2024-02-28T01:43:42;53.20;;;43.45;;
16039;SDS011;8124;48.634;8.120;2024-02-28T01:48:45;52.88;;;43.85;;
16039;SDS011;8124;48.634;8.120;2024-02-28T01:53:48;55.88;;;44.63;;
16039;SDS011;8124;48.634;8.120;2024-02-28T01:58:54;54.45;;;42.42;;
16039;SDS011;8124;48.634;8.120;2024-02-28T02:03:58;53.97;;;43.55;;
16039;SDS011;8124;48.634;8.120;2024-02-28T02:09:01;52.78;;;43.05;;
16039;SDS011;8124;48.634;8.120;2024-02-28T02:14:06;53.97;;;44.63;;
16039;SDS011;8124;48.634;8.120;2024-02-28T02:19:09;55.60;;;43.33;;
16039;SDS011;8124;48.634;8.120;2024-02-28T02:24:13;50.60;;;41.53;;
16039;SDS011;8124;48.634;8.120;2024-02-28T02:29:16;51.47;;;42.53;;
16039;SDS011;8124;48.634;8.120;2024-02-28T02:34:19;53.20;;;43.28;;
16039;SDS011;8124;48.634;8.120;2024-02-28T02:39:24;54.60;;;42.92;;
16039;SDS011;8124;48.634;8.120;2024-02-28T02:44:27;52.55;;;42.97;;
16039;SDS011;8124;48.634;8.120;2024-02-28T02:49:30;54.53;;;44.00;;
16039;SDS011;8124;48.634;8.120;2024-02-28T02:54:34;50.53;;;41.65;;
16039;SDS011;8124;48.634;8.120;2024-02-28T02:59:37;53.03;;;42.78;;
16039;SDS011;8124;48.634;8.120;2024-02-28T03:04:40;51.78;;;42.05;;
16039;SDS011;8124;48.634;8.120;2024-02-28T03:09:44;54.08;;;43.95;;
16039;SDS011;8124;48.634;8.120;2024-02-28T03:14:48;55.78;;;42.80;;
16039;SDS011;8124;48.634;8.120;2024-02-28T03:19:51;52.70;;;42.17;;
16039;SDS011;8124;48.634;8.120;2024-02-28T03:24:55;53.63;;;42.75;;
16039;SDS011;8124;48.634;8.120;2024-02-28T03:29:58;52.28;;;42.55;;
16039;SDS011;8124;48.634;8.120;2024-02-28T03:35:01;51.28;;;41.47;;
16039;SDS011;8124;48.634;8.120;2024-02-28T03:40:07;56.42;;;42.35;;
16039;SDS011;8124;48.634;8.120;2024-02-28T03:45:11;56.15;;;43.03;;
16039;SDS011;8124;48.634;8.120;2024-02-28T03:50:14;54.00;;;44.22;;
16039;SDS011;8124;48.634;8.120;2024-02-28T03:55:18;60.13;;;44.25;;
16039;SDS011;8124;48.634;8.120;2024-02-28T04:00:21;53.17;;;42.88;;
16039;SDS011;8124;48.634;8.120;2024-02-28T04:05:24;53.03;;;43.03;;
16039;SDS011;8124;48.634;8.120;2024-02-28T04:10:29;54.72;;;42.53;;
16039;SDS011;8124;48.634;8.120;2024-02-28T04:15:32;54.50;;;43.58;;
16039;SDS011;8124;48.634;8.120;2024-02-28T04:20:35;56.65;;;43.08;;
16039;SDS011;8124;48.634;8.120;2024-02-28T04:25:41;54.33;;;42.20;;
16039;SDS011;8124;48.634;8.120;2024-02-28T04:30:44;53.42;;;43.95;;
16039;SDS011;8124;48.634;8.120;2024-02-28T04:35:46;51.97;;;42.40;;
16039;SDS011;8124;48.634;8.120;2024-02-28T04:40:51;53.28;;;42.08;;
16039;SDS011;8124;48.634;8.120;2024-02-28T04:45:54;55.97;;;42.65;;
16039;SDS011;8124;48.634;8.120;2024-02-28T04:50:57;51.33;;;42.33;;
16039;SDS011;8124;48.634;8.120;2024-02-28T04:56:01;56.15;;;42.53;;
16039;SDS011;8124;48.634;8.120;2024-02-28T05:01:04;56.38;;;42.45;;
16039;SDS011;8124;48.634;8.120;2024-02-28T05:06:07;58.22;;;44.45;;
16039;SDS011;8124;48.634;8.120;2024-02-28T05:11:11;57.45;;;44.05;;
16039;SDS011;8124;48.634;8.120;2024-02-28T05:16:15;56.42;;;43.35;;
16039;SDS011;8124;48.634;8.120;2024-02-28T05:21:18;58.67;;;43.92;;
16039;SDS011;8124;48.634;8.120;2024-02-28T05:26:23;57.20;;;43.55;;
16039;SDS011;8124;48.634;8.120;2024-02-28T05:31:26;53.88;;;42.80;;
16039;SDS011;8124;48.634;8.120;2024-02-28T05:36:30;53.20;;;42.45;;
16039;SDS011;8124;48.634;8.120;2024-02-28T05:41:34;53.35;;;42.28;;
16039;SDS011;8124;48.634;8.120;2024-02-28T05:46:37;51.50;;;41.72;;
16039;SDS011;8124;48.634;8.120;2024-02-28T05:51:40;54.17;;;42.88;;
16039;SDS011;8124;48.634;8.120;2024-02-28T05:56:44;55.90;;;43.88;;
16039;SDS011;8124;48.634;8.120;2024-02-28T06:01:47;55.45;;;44.65;;
16039;SDS011;8124;48.634;8.120;2024-02-28T06:06:51;56.88;;;44.30;;
16039;SDS011;8124;48.634;8.120;2024-02-28T06:11:55;58.08;;;43.85;;
16039;SDS011;8124;48.634;8.120;2024-02-28T06:17:01;55.85;;;44.80;;
16039;SDS011;8124;48.634;8.120;2024-02-28T06:22:03;59.47;;;44.05;;
16039;SDS011;8124;48.634;8.120;2024-02-28T06:27:10;59.00;;;44.45;;
16039;SDS011;8124;48.634;8.120;2024-02-28T06:32:14;53.55;;;43.03;;
16039;SDS011;8124;48.634;8.120;2024-02-28T06:37:17;51.40;;;42.30;;
16039;SDS011;8124;48.634;8.120;2024-02-28T06:42:21;53.60;;;43.40;;
16039;SDS011;8124;48.634;8.120;2024-02-28T06:47:24;52.72;;;42.70;;
16039;SDS011;8124;48.634;8.120;2024-02-28T06:52:27;51.70;;;42.45;;
16039;SDS011;8124;48.634;8.120;2024-02-28T06:57:31;54.30;;;42.47;;
16039;SDS011;8124;48.634;8.120;2024-02-28T07:02:34;51.72;;;42.47;;
16039;SDS011;8124;48.634;8.120;2024-02-28T07:07:38;52.05;;;41.58;;
16039;SDS011;8124;48.634;8.120;2024-02-28T07:12:42;55.65;;;42.30;;
16039;SDS011;8124;48.634;8.120;2024-02-28T07:17:45;50.47;;;41.33;;
16039;SDS011;8124;48.634;8.120;2024-02-28T07:22:48;57.83;;;43.92;;
16039;SDS011;8124;48.634;8.120;2024-02-28T07:27:52;52.30;;;42.28;;
16039;SDS011;8124;48.634;8.120;2024-02-28T07:32:55;52.95;;;41.92;;
16039;SDS011;8124;48.634;8.120;2024-02-28T07:37:59;56.75;;;44.40;;
16039;SDS011;8124;48.634;8.120;2024-02-28T07:43:03;59.85;;;44.75;;
16039;SDS011;8124;48.634;8.120;2024-02-28T07:48:06;55.33;;;44.33;;
16039;SDS011;8124;48.634;8.120;2024-02-28T07:53:09;61.92;;;45.30;;
16039;SDS011;8124;48.634;8.120;2024-02-28T07:58:15;60.50;;;45.60;;
16039;SDS011;8124;48.634;8.120;2024-02-28T08:03:18;63.90;;;47.33;;
16039;SDS011;8124;48.634;8.120;2024-02-28T08:08:21;63.55;;;47.15;;
16039;SDS011;8124;48.634;8.120;2024-02-28T08:13:26;65.53;;;47.53;;
16039;SDS011;8124;48.634;8.120;2024-02-28T08:18:29;62.78;;;46.40;;
16039;SDS011;8124;48.634;8.120;2024-02-28T08:23:32;56.83;;;45.00;;
16039;SDS011;8124;48.634;8.120;2024-02-28T08:28:37;60.63;;;46.72;;
16039;SDS011;8124;48.634;8.120;2024-02-28T08:33:40;67.22;;;49.22;;
16039;SDS011;8124;48.634;8.120;2024-02-28T08:38:43;63.95;;;48.08;;
16039;SDS011;8124;48.634;8.120;2024-02-28T08:43:48;66.72;;;47.67;;
16039;SDS011;8124;48.634;8.120;2024-02-28T08:48:51;62.15;;;47.10;;
16039;SDS011;8124;48.634;8.120;2024-02-28T08:53:54;66.05;;;47.92;;
16039;SDS011;8124;48.634;8.120;2024-02-28T08:59:00;72.05;;;48.47;;
16039;SDS011;8124;48.634;8.120;2024-02-28T09:04:03;65.43;;;47.15;;
16039;SDS011;8124;48.634;8.120;2024-02-28T09:09:06;62.88;;;47.35;;
16039;SDS011;8124;48.634;8.120;2024-02-28T09:14:10;65.03;;;48.00;;
16039;SDS011;8124;48.634;8.120;2024-02-28T09:19:13;65.03;;;48.78;;
16039;SDS011;8124;48.634;8.120;2024-02-28T09:24:16;62.55;;;47.45;;
16039;SDS011;8124;48.634;8.120;2024-02-28T09:29:21;62.92;;;48.03;;
16039;SDS011;8124;48.634;8.120;2024-02-28T09:34:23;63.03;;;47.50;;
16039;SDS011;8124;48.634;8.120;2024-02-28T09:39:26;67.82;;;47.50;;
16039;SDS011;8124;48.634;8.120;2024-02-28T09:44:31;67.88;;;48.50;;
16039;SDS011;8124;48.634;8.120;2024-02-28T09:49:35;68.47;;;48.03;;
16039;SDS011;8124;48.634;8.120;2024-02-28T09:54:39;65.38;;;48.03;;
16039;SDS011;8124;48.634;8.120;2024-02-28T09:59:47;62.38;;;47.05;;
16039;SDS011;8124;48.634;8.120;2024-02-28T10:04:55;66.18;;;47.75;;
16039;SDS011;8124;48.634;8.120;2024-02-28T10:10:00;61.72;;;46.58;;
16039;SDS011;8124;48.634;8.120;2024-02-28T10:15:05;63.20;;;47.17;;
16039;SDS011;8124;48.634;8.120;2024-02-28T10:20:09;65.00;;;48.45;;
16039;SDS011;8124;48.634;8.120;2024-02-28T10:25:13;69.45;;;49.17;;
16039;SDS011;8124;48.634;8.120;2024-02-28T10:30:18;67.50;;;49.15;;
16039;SDS011;8124;48.634;8.120;2024-02-28T10:35:21;65.55;;;47.67;;
16039;SDS011;8124;48.634;8.120;2024-02-28T10:40:26;68.97;;;48.38;;
16039;SDS011;8124;48.634;8.120;2024-02-28T10:45:31;64.82;;;47.95;;
16039;SDS011;8124;48.634;8.120;2024-02-28T10:50:55;63.67;;;47.45;;
16039;SDS011;8124;48.634;8.120;2024-02-28T10:55:59;63.15;;;47.25;;
16039;SDS011;8124;48.634;8.120;2024-02-28T11:01:06;69.95;;;49.92;;
16039;SDS011;8124;48.634;8.120;2024-02-28T11:06:16;62.95;;;47.50;;
16039;SDS011;8124;48.634;8.120;2024-02-28T11:11:20;63.60;;;47.92;;
16039;SDS011;8124;48.634;8.120;2024-02-28T11:16:29;66.00;;;49.17;;
16039;SDS011;8124;48.634;8.120;2024-02-28T11:21:34;70.47;;;48.97;;
16039;SDS011;8124;48.634;8.120;2024-02-28T11:26:37;66.18;;;47.45;;
16039;SDS011;8124;48.634;8.120;2024-02-28T11:31:42;66.55;;;46.67;;
16039;SDS011;8124;48.634;8.120;2024-02-28T11:36:46;62.22;;;46.72;;
16039;SDS011;8124;48.634;8.120;2024-02-28T11:41:49;64.50;;;46.78;;
16039;SDS011;8124;48.634;8.120;2024-02-28T11:46:54;61.10;;;46.28;;
16039;SDS011;8124;48.634;8.120;2024-02-28T11:51:57;58.92;;;44.58;;
16039;SDS011;8124;48.634;8.120;2024-02-28T11:57:00;59.47;;;45.60;;
16039;SDS011;8124;48.634;8.120;2024-02-28T12:02:12;63.20;;;46.63;;
16039;SDS011;8124;48.634;8.120;2024-02-28T12:07:15;60.97;;;45.17;;
16039;SDS011;8124;48.634;8.120;2024-02-28T12:12:18;62.38;;;45.28;;
16039;SDS011;8124;48.634;8.120;2024-02-28T12:17:24;60.08;;;46.15;;
16039;SDS011;8124;48.634;8.120;2024-02-28T12:22:27;58.75;;;44.72;;
16039;SDS011;8124;48.634;8.120;2024-02-28T12:27:30;60.78;;;44.80;;
16039;SDS011;8124;48.634;8.120;2024-02-28T12:32:35;59.00;;;43.97;;
16039;SDS011;8124;48.634;8.120;2024-02-28T12:37:38;55.30;;;43.05;;
16039;SDS011;8124;48.634;8.120;2024-02-28T12:42:41;55.60;;;44.20;;
16039;SDS011;8124;48.634;8.120;2024-02-28T12:47:46;55.63;;;43.13;;
16039;SDS011;8124;48.634;8.120;2024-02-28T12:52:51;57.00;;;43.63;;
16039;SDS011;8124;48.634;8.120;2024-02-28T12:57:55;52.05;;;42.38;;
16039;SDS011;8124;48.634;8.120;2024-02-28T13:03:02;57.03;;;43.20;;
16039;SDS011;8124;48.634;8.120;2024-02-28T13:08:06;55.45;;;41.85;;
16039;SDS011;8124;48.634;8.120;2024-02-28T13:13:09;54.15;;;41.97;;
16039;SDS011;8124;48.634;8.120;2024-02-28T13:18:14;53.72;;;42.35;;
16039;SDS011;8124;48.634;8.120;2024-02-28T13:23:17;53.00;;;42.53;;
16039;SDS011;8124;48.634;8.120;2024-02-28T13:28:21;51.63;;;41.50;;
16039;SDS011;8124;48.634;8.120;2024-02-28T13:33:32;54.45;;;42.63;;
16039;SDS011;8124;48.634;8.120;2024-02-28T13:38:35;54.35;;;42.97;;
16039;SDS011;8124;48.634;8.120;2024-02-28T13:43:38;54.15;;;42.40;;
16039;SDS011;8124;48.634;8.120;2024-02-28T13:48:42;52.83;;;42.60;;
16039;SDS011;8124;48.634;8.120;2024-02-28T13:53:45;50.90;;;42.28;;
16039;SDS011;8124;48.634;8.120;2024-02-28T13:58:48;53.80;;;42.08;;
16039;SDS011;8124;48.634;8.120;2024-02-28T14:03:56;54.42;;;44.25;;
16039;SDS011;8124;48.634;8.120;2024-02-28T14:08:59;53.33;;;42.17;;
16039;SDS011;8124;48.634;8.120;2024-02-28T14:14:02;52.08;;;41.85;;
16039;SDS011;8124;48.634;8.120;2024-02-28T14:19:06;51.15;;;41.33;;
16039;SDS011;8124;48.634;8.120;2024-02-28T14:24:10;51.00;;;40.95;;
16039;SDS011;8124;48.634;8.120;2024-02-28T14:29:13;49.60;;;40.17;;
16039;SDS011;8124;48.634;8.120;2024-02-28T14:34:18;48.47;;;39.72;;
16039;SDS011;8124;48.634;8.120;2024-02-28T14:39:22;49.88;;;40.25;;
16039;SDS011;8124;48.634;8.120;2024-02-28T14:44:25;48.30;;;40.38;;
16039;SDS011;8124;48.634;8.120;2024-02-28T14:49:29;49.30;;;39.55;;
16039;SDS011;8124;48.634;8.120;2024-02-28T14:54:32;47.45;;;39.08;;
16039;SDS011;8124;48.634;8.120;2024-02-28T14:59:35;47.30;;;39.65;;
16039;SDS011;8124;48.634;8.120;2024-02-28T15:04:39;49.50;;;41.78;;
16039;SDS011;8124;48.634;8.120;2024-02-28T15:09:42;52.95;;;40.47;;
16039;SDS011;8124;48.634;8.120;2024-02-28T15:14:45;47.70;;;40.08;;
16039;SDS011;8124;48.634;8.120;2024-02-28T15:19:50;49.15;;;39.92;;
16039;SDS011;8124;48.634;8.120;2024-02-28T15:24:53;47.97;;;39.70;;
16039;SDS011;8124;48.634;8.120;2024-02-28T15:29:55;49.85;;;39.67;;
16039;SDS011;8124;48.634;8.120;2024-02-28T15:35:00;47.38;;;39.47;;
16039;SDS011;8124;48.634;8.120;2024-02-28T15:40:03;46.67;;;38.90;;
16039;SDS011;8124;48.634;8.120;2024-02-28T15:45:08;47.78;;;38.90;;
16039;SDS011;8124;48.634;8.120;2024-02-28T15:50:13;51.90;;;39.72;;
16039;SDS011;8124;48.634;8.120;2024-02-28T15:55:16;48.25;;;39.63;;
16039;SDS011;8124;48.634;8.120;2024-02-28T16:00:21;48.58;;;39.60;;
16039;SDS011;8124;48.634;8.120;2024-02-28T16:05:25;47.53;;;39.65;;
16039;SDS011;8124;48.634;8.120;2024-02-28T16:10:29;47.95;;;39.60;;
16039;SDS011;8124;48.634;8.120;2024-02-28T16:15:33;46.97;;;39.20;;
16039;SDS011;8124;48.634;8.120;2024-02-28T16:20:38;49.13;;;39.10;;
16039;SDS011;8124;48.634;8.120;2024-02-28T16:25:43;46.97;;;39.20;;
16039;SDS011;8124;48.634;8.120;2024-02-28T16:30:46;50.17;;;38.90;;
16039;SDS011;8124;48.634;8.120;2024-02-28T16:35:50;47.47;;;38.60;;
16039;SDS011;8124;48.634;8.120;2024-02-28T16:40:53;47.30;;;38.65;;
16039;SDS011;8124;48.634;8.120;2024-02-28T16:45:57;46.80;;;38.83;;
16039;SDS011;8124;48.634;8.120;2024-02-28T16:51:02;48.50;;;39.83;;
16039;SDS011;8124;48.634;8.120;2024-02-28T16:56:06;48.15;;;39.95;;
16039;SDS011;8124;48.634;8.120;2024-02-28T17:01:09;49.08;;;40.00;;
16039;SDS011;8124;48.634;8.120;2024-02-28T17:06:15;48.17;;;39.25;;
16039;SDS011;8124;48.634;8.120;2024-02-28T17:11:20;49.72;;;40.22;;
16039;SDS011;8124;48.634;8.120;2024-02-28T17:16:24;53.70;;;43.03;;
16039;SDS011;8124;48.634;8.120;2024-02-28T17:21:28;49.40;;;41.13;;
16039;SDS011;8124;48.634;8.120;2024-02-28T17:26:32;48.33;;;40.88;;
16039;SDS011;8124;48.634;8.120;2024-02-28T17:31:39;48.85;;;40.75;;
16039;SDS011;8124;48.634;8.120;2024-02-28T17:36:46;45.85;;;37.97;;
16039;SDS011;8124;48.634;8.120;2024-02-28T17:41:50;45.97;;;38.63;;
16039;SDS011;8124;48.634;8.120;2024-02-28T17:46:59;48.95;;;39.25;;
16039;SDS011;8124;48.634;8.120;2024-02-28T17:52:40;45.63;;;38.72;;
16039;SDS011;8124;48.634;8.120;2024-02-28T17:57:57;47.03;;;38.92;;
16039;SDS011;8124;48.634;8.120;2024-02-28T18:03:02;45.00;;;37.95;;
16039;SDS011;8124;48.634;8.120;2024-02-28T18:08:10;44.13;;;37.00;;
16039;SDS011;8124;48.634;8.120;2024-02-28T18:13:13;43.22;;;36.83;;
16039;SDS011;8124;48.634;8.120;2024-02-28T18:18:19;44.58;;;37.67;;
16039;SDS011;8124;48.634;8.120;2024-02-28T18:23:23;48.95;;;39.70;;
16039;SDS011;8124;48.634;8.120;2024-02-28T18:28:35;46.35;;;39.38;;
16039;SDS011;8124;48.634;8.120;2024-02-28T18:33:40;46.10;;;39.15;;
16039;SDS011;8124;48.634;8.120;2024-02-28T18:38:45;48.47;;;39.75;;
16039;SDS011;8124;48.634;8.120;2024-02-28T18:43:48;52.92;;;40.80;;
16039;SDS011;8124;48.634;8.120;2024-02-28T18:48:51;64.05;;;47.90;;
16039;SDS011;8124;48.634;8.120;2024-02-28T18:53:56;52.67;;;42.33;;
16039;SDS011;8124;48.634;8.120;2024-02-28T18:59:03;49.55;;;41.13;;
16039;SDS011;8124;48.634;8.120;2024-02-28T19:04:07;45.10;;;38.10;;
16039;SDS011;8124;48.634;8.120;2024-02-28T19:09:11;44.25;;;38.10;;
16039;SDS011;8124;48.634;8.120;2024-02-28T19:14:15;46.05;;;38.90;;
16039;SDS011;8124;48.634;8.120;2024-02-28T19:19:19;48.90;;;40.28;;
16039;SDS011;8124;48.634;8.120;2024-02-28T19:24:33;47.00;;;39.35;;
16039;SDS011;8124;48.634;8.120;2024-02-28T19:29:36;48.45;;;39.67;;
16039;SDS011;8124;48.634;8.120;2024-02-28T19:34:40;48.30;;;40.38;;
16039;SDS011;8124;48.634;8.120;2024-02-28T19:39:45;46.60;;;38.75;;
16039;SDS011;8124;48.634;8.120;2024-02-28T19:44:51;47.30;;;38.85;;
16039;SDS011;8124;48.634;8.120;2024-02-28T19:49:53;48.28;;;39.38;;
16039;SDS011;8124;48.634;8.120;2024-02-28T19:54:59;50.03;;;40.30;;
16039;SDS011;8124;48.634;8.120;2024-02-28T20:00:06;48.33;;;40.08;;
16039;SDS011;8124;48.634;8.120;2024-02-28T20:05:11;49.25;;;40.03;;
16039;SDS011;8124;48.634;8.120;2024-02-28T20:10:16;50.92;;;41.63;;
16039;SDS011;8124;48.634;8.120;2024-02-28T20:15:19;50.67;;;40.78;;
16039;SDS011;8124;48.634;8.120;2024-02-28T20:20:24;48.92;;;41.00;;
16039;SDS011;8124;48.634;8.120;2024-02-28T20:25:32;50.97;;;40.97;;
16039;SDS011;8124;48.634;8.120;2024-02-28T20:30:37;50.35;;;40.42;;
16039;SDS011;8124;48.634;8.120;2024-02-28T20:35:40;52.30;;;40.75;;
16039;SDS011;8124;48.634;8.120;2024-02-28T20:40:45;48.70;;;40.00;;
16039;SDS011;8124;48.634;8.120;2024-02-28T20:46:56;47.85;;;38.88;;
16039;SDS011;8124;48.634;8.120;2024-02-28T20:51:21;45.72;;;38.97;;
16039;SDS011;8124;48.634;8.120;2024-02-28T20:56:25;51.95;;;41.55;;
16039;SDS011;8124;48.634;8.120;2024-02-28T21:01:28;52.28;;;41.35;;
16039;SDS011;8124;48.634;8.120;2024-02-28T21:06:32;47.70;;;40.42;;
16039;SDS011;8124;48.634;8.120;2024-02-28T21:11:36;49.70;;;40.55;;
16039;SDS011;8124;48.634;8.120;2024-02-28T21:16:39;46.83;;;39.13;;
16039;SDS011;8124;48.634;8.120;2024-02-28T21:21:42;47.47;;;38.38;;
16039;SDS011;8124;48.634;8.120;2024-02-28T21:26:47;45.40;;;38.72;;
16039;SDS011;8124;48.634;8.120;2024-02-28T21:31:49;44.85;;;37.88;;
16039;SDS011;8124;48.634;8.120;2024-02-28T21:36:52;45.80;;;38.28;;
16039;SDS011;8124;48.634;8.120;2024-02-28T21:41:57;44.63;;;37.53;;
16039;SDS011;8124;48.634;8.120;2024-02-28T21:47:00;46.83;;;38.95;;
16039;SDS011;8124;48.634;8.120;2024-02-28T21:52:03;46.95;;;38.65;;
16039;SDS011;8124;48.634;8.120;2024-02-28T21:57:07;48.33;;;39.42;;
16039;SDS011;8124;48.634;8.120;2024-02-28T22:02:11;46.15;;;38.17;;
16039;SDS011;8124;48.634;8.120;2024-02-28T22:07:14;46.85;;;38.20;;
16039;SDS011;8124;48.634;8.120;2024-02-28T22:12:18;45.05;;;38.13;;
16039;SDS011;8124;48.634;8.120;2024-02-28T22:17:21;45.83;;;38.58;;
16039;SDS011;8124;48.634;8.120;2024-02-28T22:22:24;45.35;;;38.85;;
16039;SDS011;8124;48.634;8.120;2024-02-28T22:27:28;45.63;;;38.65;;
16039;SDS011;8124;48.634;8.120;2024-02-28T22:32:31;44.85;;;38.22;;
16039;SDS011;8124;48.634;8.120;2024-02-28T22:37:34;45.58;;;38.47;;
16039;SDS011;8124;48.634;8.120;2024-02-28T22:42:39;44.10;;;37.05;;
16039;SDS011;8124;48.634;8.120;2024-02-28T22:47:43;48.38;;;39.17;;
16039;SDS011;8124;48.634;8.120;2024-02-28T22:52:46;48.40;;;38.10;;
16039;SDS011;8124;48.634;8.120;2024-02-28T22:57:50;47.42;;;38.30;;
16039;SDS011;8124;48.634;8.120;2024-02-28T23:02:54;45.95;;;37.92;;
16039;SDS011;8124;48.634;8.120;2024-02-28T23:07:58;44.38;;;37.75;;
16039;SDS011;8124;48.634;8.120;2024-02-28T23:13:03;45.58;;;37.83;;
16039;SDS011;8124;48.634;8.120;2024-02-28T23:18:06;44.50;;;36.85;;
16039;SDS011;8124;48.634;8.120;2024-02-28T23:23:10;49.45;;;38.88;;
16039;SDS011;8124;48.634;8.120;2024-02-28T23:28:14;45.88;;;38.25;;
16039;SDS011;8124;48.634;8.120;2024-02-28T23:33:17;45.10;;;37.45;;
16039;SDS011;8124;48.634;8.120;2024-02-28T23:38:20;45.85;;;37.53;;
16039;SDS011;8124;48.634;8.120;2024-02-28T23:43:25;43.92;;;36.85;;
16039;SDS011;8124;48.634;8.120;2024-02-28T23:48:28;44.08;;;37.75;;
16039;SDS011;8124;48.634;8.120;2024-02-28T23:53:31;42.90;;;36.17;;
16039;SDS011;8124;48.634;8.120;2024-02-28T23:58:35;44.15;;;36.90;;
